createdAt,value
2023-04-25T00:02:11.322Z,13.50
2023-04-25T00:04:39.466Z,14.47
2023-04-25T00:07:07.750Z,17.70
2023-04-25T00:09:35.587Z,10.50
2023-04-25T00:12:03.805Z,22.43
2023-04-25T00:14:34.726Z,9.43
2023-04-25T00:17:03.961Z,12.73
2023-04-25T00:19:31.633Z,11.77
2023-04-25T00:21:59.540Z,13.97
2023-04-25T00:24:27.358Z,12.60
2023-04-25T00:26:55.130Z,15.27
2023-04-25T00:29:23.019Z,11.80
2023-04-25T00:31:50.863Z,12.97
2023-04-25T00:34:18.830Z,14.40
2023-04-25T00:36:46.704Z,17.90
2023-04-25T00:39:14.673Z,14.83
2023-04-25T00:41:42.659Z,11.53
2023-04-25T00:44:13.008Z,13.77
2023-04-25T00:46:41.515Z,15.33
2023-04-25T00:49:09.320Z,8.30
2023-04-25T00:51:37.849Z,15.77
2023-04-25T00:54:05.723Z,13.43
2023-04-25T00:56:33.628Z,11.83
2023-04-25T00:59:01.304Z,11.50
2023-04-25T01:01:29.392Z,10.10
2023-04-25T01:04:02.087Z,12.73
2023-04-25T01:06:29.947Z,10.50
2023-04-25T01:09:00.134Z,11.20
2023-04-25T01:11:27.981Z,12.77
2023-04-25T01:13:55.838Z,15.47
2023-04-25T01:16:27.933Z,8.43
2023-04-25T01:18:57.262Z,16.63
2023-04-25T01:21:27.379Z,12.40
2023-04-25T01:23:56.135Z,16.03
2023-04-25T01:26:25.764Z,17.70
2023-04-25T01:28:54.080Z,13.80
2023-04-25T01:31:22.610Z,17.13
2023-04-25T01:33:50.764Z,16.67
2023-04-25T01:36:19.689Z,19.37
2023-04-25T01:38:48.531Z,14.73
2023-04-25T01:41:18.964Z,10.63
2023-04-25T01:43:47.344Z,18.90
2023-04-25T01:46:15.799Z,13.83
2023-04-25T01:48:43.777Z,16.63
2023-04-25T01:51:12.729Z,21.90
2023-04-25T01:53:41.725Z,17.97
2023-04-25T01:56:09.574Z,12.77
2023-04-25T01:58:37.429Z,11.40
2023-04-25T02:01:11.937Z,11.63
2023-04-25T02:03:48.480Z,16.00
2023-04-25T02:06:37.610Z,13.70
2023-04-25T02:09:05.828Z,21.67
2023-04-25T02:11:33.557Z,17.03
2023-04-25T02:14:24.712Z,15.00
2023-04-25T02:17:24.928Z,18.13
2023-04-25T02:19:52.754Z,19.80
2023-04-25T02:22:20.506Z,13.50
2023-04-25T02:24:48.600Z,14.90
2023-04-25T02:27:16.548Z,16.30
2023-04-25T02:29:44.297Z,11.60
2023-04-25T02:32:12.590Z,16.03
2023-04-25T02:34:40.662Z,13.23
2023-04-25T02:37:08.535Z,15.17
2023-04-25T02:39:36.217Z,11.00
2023-04-25T02:42:04.202Z,24.13
2023-04-25T02:44:31.845Z,26.33
2023-04-25T02:46:59.647Z,16.97
2023-04-25T02:49:27.456Z,15.80
2023-04-25T02:51:55.207Z,21.80
2023-04-25T02:54:22.970Z,14.17
2023-04-25T02:56:51.227Z,21.33
2023-04-25T02:59:25.193Z,20.17
2023-04-25T03:01:53.216Z,12.60
2023-04-25T03:04:21.989Z,21.90
2023-04-25T03:06:49.896Z,21.27
2023-04-25T03:09:18.115Z,13.90
2023-04-25T03:11:47.163Z,19.20
2023-04-25T03:14:15.705Z,18.70
2023-04-25T03:16:43.719Z,19.10
2023-04-25T03:19:11.453Z,17.87
2023-04-25T03:21:39.395Z,16.03
2023-04-25T03:24:07.589Z,17.90
2023-04-25T03:26:35.543Z,19.53
2023-04-25T03:29:03.401Z,10.80
2023-04-25T03:31:32.205Z,15.73
2023-04-25T03:34:00.840Z,15.77
2023-04-25T03:36:28.589Z,17.07
2023-04-25T03:38:56.432Z,15.40
2023-04-25T03:41:24.715Z,22.17
2023-04-25T03:44:01.546Z,21.13
2023-04-25T03:46:29.328Z,21.20
2023-04-25T03:48:57.528Z,13.70
2023-04-25T03:51:40.776Z,12.70
2023-04-25T03:54:08.769Z,8.60
2023-04-25T03:56:59.997Z,9.97
2023-04-25T03:59:30.039Z,8.47
2023-04-25T04:01:58.578Z,12.70
2023-04-25T04:04:29.709Z,8.20
2023-04-25T04:06:58.318Z,9.00
2023-04-25T04:09:29.556Z,18.00
2023-04-25T04:11:59.561Z,19.93
2023-04-25T04:14:27.769Z,14.47
2023-04-25T04:16:56.353Z,10.20
2023-04-25T04:19:24.605Z,8.37
2023-04-25T04:22:01.055Z,15.67
2023-04-25T04:24:28.678Z,14.43
2023-04-25T04:27:01.872Z,22.73
2023-04-25T04:29:37.789Z,19.80
2023-04-25T04:32:17.210Z,17.47
2023-04-25T04:34:45.841Z,22.37
2023-04-25T04:37:16.755Z,14.03
2023-04-25T04:39:44.819Z,10.97
2023-04-25T04:42:30.451Z,17.80
2023-04-25T04:45:08.258Z,23.50
2023-04-25T04:47:56.457Z,20.90
2023-04-25T04:50:47.185Z,23.20
2023-04-25T04:53:46.902Z,29.87
2023-04-25T04:56:24.733Z,19.47
2023-04-25T04:59:05.255Z,35.40
2023-04-25T05:01:33.207Z,27.37
2023-04-25T05:04:18.792Z,37.53
2023-04-25T05:07:06.744Z,26.57
2023-04-25T05:09:50.720Z,24.23
2023-04-25T05:12:37.429Z,28.53
2023-04-25T05:15:37.400Z,24.50
2023-04-25T05:18:28.731Z,26.43
2023-04-25T05:21:10.696Z,33.27
2023-04-25T05:24:05.437Z,52.40
2023-04-25T05:26:56.087Z,35.60
2023-04-25T05:29:39.138Z,37.43
2023-04-25T05:32:28.305Z,28.00
2023-04-25T05:34:56.807Z,36.97
2023-04-25T05:37:28.422Z,30.13
2023-04-25T05:40:07.788Z,26.77
2023-04-25T05:43:06.203Z,24.43
2023-04-25T05:45:47.965Z,27.67
2023-04-25T05:48:45.397Z,27.50
2023-04-25T05:51:37.443Z,23.10
2023-04-25T05:54:29.695Z,27.70
2023-04-25T05:56:59.148Z,30.37
2023-04-25T05:59:26.895Z,27.87
2023-04-25T06:01:54.851Z,27.03
2023-04-25T06:04:24.126Z,25.40
2023-04-25T06:06:52.109Z,25.50
2023-04-25T06:09:19.923Z,31.40
2023-04-25T06:11:47.765Z,34.80
2023-04-25T06:14:15.600Z,29.67
2023-04-25T06:16:48.579Z,25.40
2023-04-25T06:19:16.363Z,33.07
2023-04-25T06:21:46.178Z,30.87
2023-04-25T06:24:13.878Z,24.13
2023-04-25T06:26:41.731Z,20.97
2023-04-25T06:29:10.260Z,15.20
2023-04-25T06:31:38.286Z,22.33
2023-04-25T06:34:06.417Z,25.17
2023-04-25T06:36:38.277Z,17.23
2023-04-25T06:39:10.310Z,8.00
2023-04-25T06:41:38.549Z,16.40
2023-04-25T06:44:09.132Z,10.97
2023-04-25T06:46:41.537Z,8.90
2023-04-25T06:49:09.498Z,19.60
2023-04-25T06:51:38.105Z,10.90
2023-04-25T06:54:06.554Z,8.53
2023-04-25T06:56:42.426Z,6.80
2023-04-25T06:59:14.488Z,12.13
2023-04-25T07:01:43.529Z,11.30
2023-04-25T07:04:20.962Z,6.57
2023-04-25T07:06:56.101Z,8.37
2023-04-25T07:09:42.359Z,9.50
2023-04-25T07:12:10.171Z,15.77
2023-04-25T07:14:37.957Z,15.60
2023-04-25T07:17:07.720Z,7.10
2023-04-25T07:19:36.026Z,9.67
2023-04-25T07:22:04.165Z,14.03
2023-04-25T07:24:33.642Z,9.77
2023-04-25T07:27:02.396Z,12.67
2023-04-25T07:29:41.348Z,15.43
2023-04-25T07:32:09.736Z,15.57
2023-04-25T07:34:39.782Z,9.63
2023-04-25T07:37:08.464Z,11.37
2023-04-25T07:39:48.758Z,10.57
2023-04-25T07:42:17.518Z,11.00
2023-04-25T07:44:46.150Z,13.50
2023-04-25T07:47:16.190Z,13.23
2023-04-25T07:49:44.125Z,9.43
2023-04-25T07:52:12.460Z,14.20
2023-04-25T07:54:46.183Z,10.33
2023-04-25T07:57:21.074Z,11.40
2023-04-25T07:59:50.648Z,10.03
2023-04-25T08:02:19.422Z,10.60
2023-04-25T08:04:47.842Z,12.43
2023-04-25T08:07:18.554Z,11.07
2023-04-25T08:09:51.951Z,12.27
2023-04-25T08:12:26.280Z,8.90
2023-04-25T08:14:54.647Z,14.50
2023-04-25T08:17:25.199Z,8.80
2023-04-25T08:19:53.297Z,15.53
2023-04-25T08:22:27.585Z,11.87
2023-04-25T08:25:11.673Z,10.83
2023-04-25T08:27:40.735Z,16.20
2023-04-25T08:30:10.002Z,7.97
2023-04-25T08:32:39.944Z,11.20
2023-04-25T08:35:27.324Z,11.70
2023-04-25T08:37:55.406Z,13.80
2023-04-25T08:40:31.275Z,14.93
2023-04-25T08:43:26.867Z,7.37
2023-04-25T08:46:02.505Z,11.50
2023-04-25T08:48:47.544Z,9.67
2023-04-25T08:51:26.636Z,7.97
2023-04-25T08:53:58.003Z,9.50
2023-04-25T08:56:31.013Z,9.53
2023-04-25T08:58:59.633Z,11.13
2023-04-25T09:01:28.160Z,7.43
2023-04-25T09:03:58.672Z,17.33
2023-04-25T09:06:27.475Z,15.43
2023-04-25T09:08:55.306Z,12.87
2023-04-25T09:11:23.683Z,6.90
2023-04-25T09:14:23.145Z,9.60
2023-04-25T09:17:08.927Z,11.50
2023-04-25T09:19:46.915Z,16.43
2023-04-25T09:22:24.601Z,8.23
2023-04-25T09:24:52.624Z,11.57
2023-04-25T09:27:28.200Z,11.60
2023-04-25T09:30:19.157Z,8.23
2023-04-25T09:33:13.072Z,8.30
2023-04-25T09:35:46.893Z,13.77
2023-04-25T09:38:25.340Z,11.27
2023-04-25T09:41:03.513Z,5.27
2023-04-25T09:43:41.242Z,9.53
2023-04-25T09:46:13.066Z,6.87
2023-04-25T09:48:55.004Z,3.53
2023-04-25T09:51:37.598Z,9.93
2023-04-25T09:54:07.592Z,5.10
2023-04-25T09:56:45.734Z,5.37
2023-04-25T09:59:14.501Z,8.37
2023-04-25T10:01:44.499Z,6.37
2023-04-25T10:04:35.717Z,5.87
2023-04-25T10:07:22.980Z,4.37
2023-04-25T10:10:14.275Z,10.83
2023-04-25T10:12:45.347Z,8.80
2023-04-25T10:15:16.694Z,6.50
2023-04-25T10:17:46.032Z,8.10
2023-04-25T10:20:18.421Z,7.07
2023-04-25T10:22:55.144Z,4.40
2023-04-25T10:25:24.672Z,5.60
2023-04-25T10:27:54.946Z,5.93
2023-04-25T10:30:22.793Z,4.87
2023-04-25T10:32:51.959Z,10.57
2023-04-25T10:35:35.149Z,10.93
2023-04-25T10:38:15.512Z,6.50
2023-04-25T10:41:10.102Z,10.33
2023-04-25T10:43:51.754Z,6.70
2023-04-25T10:46:36.127Z,4.73
2023-04-25T10:49:04.938Z,4.73
2023-04-25T10:51:53.894Z,10.83
2023-04-25T10:54:27.179Z,6.07
2023-04-25T10:56:55.088Z,8.33
2023-04-25T10:59:29.310Z,8.27
2023-04-25T11:01:58.107Z,7.43
2023-04-25T11:04:37.788Z,6.30
2023-04-25T11:07:39.432Z,6.33
2023-04-25T11:10:08.535Z,6.17
2023-04-25T11:12:36.511Z,6.20
2023-04-25T11:15:09.443Z,9.40
2023-04-25T11:17:37.217Z,8.00
2023-04-25T11:20:12.371Z,9.40
2023-04-25T11:22:44.914Z,6.60
2023-04-25T11:25:17.718Z,6.77
2023-04-25T11:28:02.495Z,3.67
2023-04-25T11:30:31.826Z,5.13
2023-04-25T11:33:00.022Z,3.03
2023-04-25T11:35:27.810Z,4.17
2023-04-25T11:37:55.857Z,5.80
2023-04-25T11:40:23.602Z,9.50
2023-04-25T11:42:52.564Z,4.67
2023-04-25T11:45:24.005Z,5.10
2023-04-25T11:47:51.950Z,7.50
2023-04-25T11:50:19.742Z,6.00
2023-04-25T11:52:50.250Z,4.40
2023-04-25T11:55:21.697Z,5.03
2023-04-25T11:57:53.077Z,5.37
2023-04-25T12:00:23.738Z,2.60
2023-04-25T12:02:59.849Z,4.43
2023-04-25T12:05:34.945Z,5.90
2023-04-25T12:08:15.555Z,3.30
2023-04-25T12:10:48.024Z,5.07
2023-04-25T12:13:26.404Z,3.13
2023-04-25T12:15:57.635Z,4.97
2023-04-25T12:18:28.968Z,7.23
2023-04-25T12:20:57.435Z,3.63
2023-04-25T12:23:30.240Z,7.20
2023-04-25T12:25:58.866Z,5.43
2023-04-25T12:28:31.704Z,7.60
2023-04-25T12:31:05.521Z,5.17
2023-04-25T12:33:40.557Z,3.70
2023-04-25T12:36:13.349Z,5.57
2023-04-25T12:38:43.815Z,6.17
2023-04-25T12:41:11.664Z,4.97
2023-04-25T12:43:39.328Z,9.77
2023-04-25T12:46:07.161Z,5.17
2023-04-25T12:48:34.973Z,3.60
2023-04-25T12:51:02.704Z,6.90
2023-04-25T12:53:30.954Z,6.07
2023-04-25T12:55:58.764Z,9.23
2023-04-25T12:58:26.891Z,5.67
2023-04-25T13:00:54.715Z,6.33
2023-04-25T13:03:23.720Z,5.53
2023-04-25T13:05:52.146Z,6.10
2023-04-25T13:08:20.650Z,4.13
2023-04-25T13:10:49.644Z,6.73
2023-04-25T13:13:17.819Z,4.10
2023-04-25T13:15:45.786Z,5.93
2023-04-25T13:18:13.478Z,3.73
2023-04-25T13:20:41.431Z,8.03
2023-04-25T13:23:09.092Z,3.60
2023-04-25T13:25:36.883Z,7.97
2023-04-25T13:28:04.968Z,7.80
2023-04-25T13:30:32.667Z,9.23
2023-04-25T13:33:04.438Z,7.63
2023-04-25T13:35:34.214Z,4.63
2023-04-25T13:38:02.522Z,4.13
2023-04-25T13:40:31.146Z,4.23
2023-04-25T13:42:59.203Z,4.33
2023-04-25T13:45:27.151Z,5.73
2023-04-25T13:47:55.177Z,6.27
2023-04-25T13:50:23.019Z,3.53
2023-04-25T13:52:50.841Z,3.20
2023-04-25T13:55:18.950Z,3.73
2023-04-25T13:57:46.909Z,4.53
2023-04-25T14:00:16.407Z,3.77
2023-04-25T14:02:44.154Z,3.90
2023-04-25T14:05:11.974Z,2.53
2023-04-25T14:07:40.006Z,3.20
2023-04-25T14:10:08.802Z,4.90
2023-04-25T14:12:36.712Z,7.73
2023-04-25T14:15:06.215Z,5.93
2023-04-25T14:17:34.129Z,2.20
2023-04-25T14:20:01.992Z,3.47
2023-04-25T14:22:29.695Z,2.57
2023-04-25T14:24:57.503Z,4.23
2023-04-25T14:27:28.602Z,3.70
2023-04-25T14:29:57.251Z,3.87
2023-04-25T14:32:25.230Z,2.63
2023-04-25T14:34:52.967Z,10.23
2023-04-25T14:37:21.196Z,7.77
2023-04-25T14:39:48.983Z,5.47
2023-04-25T14:42:16.710Z,7.17
2023-04-25T14:44:44.528Z,5.03
2023-04-25T14:47:12.496Z,3.70
2023-04-25T14:49:40.807Z,4.80
2023-04-25T14:52:08.601Z,6.93
2023-04-25T14:54:36.553Z,4.30
2023-04-25T14:57:04.429Z,4.10
2023-04-25T14:59:32.183Z,3.90
2023-04-25T15:02:00.150Z,5.37
2023-04-25T15:04:28.101Z,5.27
2023-04-25T15:06:57.120Z,2.67
2023-04-25T15:09:25.234Z,5.40
2023-04-25T15:11:53.396Z,2.97
2023-04-25T15:14:21.780Z,6.87
2023-04-25T15:16:49.562Z,4.53
2023-04-25T15:19:17.270Z,6.23
2023-04-25T15:21:44.971Z,8.13
2023-04-25T15:24:13.187Z,3.83
2023-04-25T15:26:40.779Z,7.30
2023-04-25T15:29:08.745Z,3.50
2023-04-25T15:31:36.843Z,4.00
2023-04-25T15:34:05.270Z,3.60
2023-04-25T15:36:33.223Z,6.93
2023-04-25T15:39:00.909Z,5.50
2023-04-25T15:41:29.579Z,4.00
2023-04-25T15:43:57.330Z,3.20
2023-04-25T15:46:25.318Z,5.80
2023-04-25T15:48:53.054Z,5.97
2023-04-25T15:51:21.825Z,3.90
2023-04-25T15:53:49.916Z,3.93
2023-04-25T15:56:18.176Z,2.57
2023-04-25T15:58:46.079Z,3.20
2023-04-25T16:01:13.898Z,3.40
2023-04-25T16:03:41.993Z,4.80
2023-04-25T16:06:09.940Z,5.30
2023-04-25T16:08:37.743Z,3.10
2023-04-25T16:11:05.689Z,3.13
2023-04-25T16:13:35.472Z,4.13
2023-04-25T16:16:03.317Z,5.00
2023-04-25T16:18:31.906Z,3.00
2023-04-25T16:20:59.813Z,8.73
2023-04-25T16:23:27.671Z,3.80
2023-04-25T16:25:55.728Z,3.37
2023-04-25T16:28:23.507Z,6.10
2023-04-25T16:30:51.363Z,6.43
2023-04-25T16:33:19.060Z,4.63
2023-04-25T16:35:47.018Z,4.70
2023-04-25T16:38:14.608Z,6.13
2023-04-25T16:40:42.545Z,2.87
2023-04-25T16:43:10.272Z,7.13
2023-04-25T16:45:38.131Z,7.27
2023-04-25T16:48:06.337Z,4.97
2023-04-25T16:50:34.209Z,6.93
2023-04-25T16:53:02.590Z,4.70
2023-04-25T16:55:31.585Z,7.13
2023-04-25T16:57:59.857Z,5.70
2023-04-25T17:00:27.739Z,5.20
2023-04-25T17:02:55.600Z,3.40
2023-04-25T17:05:25.090Z,3.97
2023-04-25T17:07:52.848Z,5.77
2023-04-25T17:10:21.078Z,6.80
2023-04-25T17:12:49.735Z,3.40
2023-04-25T17:15:17.894Z,7.03
2023-04-25T17:17:45.949Z,5.53
2023-04-25T17:20:14.024Z,4.10
2023-04-25T17:22:42.212Z,8.20
2023-04-25T17:25:11.193Z,6.30
2023-04-25T17:27:39.050Z,6.90
2023-04-25T17:30:08.776Z,6.10
2023-04-25T17:32:36.946Z,6.57
2023-04-25T17:35:07.143Z,7.53
2023-04-25T17:37:35.381Z,7.33
2023-04-25T17:40:05.293Z,7.47
2023-04-25T17:42:33.266Z,7.43
2023-04-25T17:45:01.188Z,4.53
2023-04-25T17:47:29.001Z,4.87
2023-04-25T17:49:57.723Z,6.80
2023-04-25T17:52:26.517Z,3.13
2023-04-25T17:54:54.162Z,5.30
2023-04-25T17:57:22.908Z,5.07
2023-04-25T17:59:50.962Z,5.70
2023-04-25T18:02:19.005Z,5.30
2023-04-25T18:04:47.141Z,9.50
2023-04-25T18:07:16.558Z,8.33
2023-04-25T18:09:45.052Z,3.97
2023-04-25T18:12:14.997Z,9.90
2023-04-25T18:14:42.828Z,4.70
2023-04-25T18:17:12.416Z,4.90
2023-04-25T18:19:40.139Z,6.77
2023-04-25T18:22:08.003Z,5.07
2023-04-25T18:24:36.363Z,8.17
2023-04-25T18:27:05.967Z,3.40
2023-04-25T18:29:34.293Z,5.60
2023-04-25T18:32:04.429Z,4.73
2023-04-25T18:34:34.131Z,4.80
2023-04-25T18:37:02.204Z,5.60
2023-04-25T18:39:30.165Z,5.03
2023-04-25T18:42:01.531Z,6.27
2023-04-25T18:44:36.591Z,4.03
2023-04-25T18:47:04.571Z,9.40
2023-04-25T18:49:34.052Z,4.40
2023-04-25T18:52:03.956Z,5.23
2023-04-25T18:54:32.321Z,8.10
2023-04-25T18:57:01.348Z,4.77
2023-04-25T18:59:29.359Z,6.70
2023-04-25T19:01:57.336Z,6.97
2023-04-25T19:04:25.447Z,8.97
2023-04-25T19:06:54.444Z,7.97
2023-04-25T19:09:22.278Z,9.07
2023-04-25T19:11:49.999Z,6.80
2023-04-25T19:14:17.975Z,5.63
2023-04-25T19:16:45.989Z,6.40
2023-04-25T19:19:14.030Z,9.80
2023-04-25T19:21:42.094Z,5.63
2023-04-25T19:24:10.243Z,4.20
2023-04-25T19:26:40.094Z,6.00
2023-04-25T19:29:16.790Z,4.00
2023-04-25T19:31:46.019Z,8.70
2023-04-25T19:34:14.549Z,3.00
2023-04-25T19:36:44.264Z,4.97
2023-04-25T19:39:12.342Z,5.00
2023-04-25T19:41:40.334Z,8.80
2023-04-25T19:44:10.524Z,7.43
2023-04-25T19:46:39.019Z,9.90
2023-04-25T19:49:07.889Z,3.60
2023-04-25T19:51:37.513Z,5.40
2023-04-25T19:54:05.901Z,8.50
2023-04-25T19:56:34.113Z,4.80
2023-04-25T19:59:01.949Z,8.93
2023-04-25T20:01:30.696Z,4.10
2023-04-25T20:03:58.573Z,6.60
2023-04-25T20:06:27.366Z,8.57
2023-04-25T20:08:56.130Z,4.43
2023-04-25T20:11:24.036Z,4.13
2023-04-25T20:13:52.457Z,5.80
2023-04-25T20:16:22.088Z,6.30
2023-04-25T20:18:50.749Z,5.77
2023-04-25T20:21:20.256Z,5.33
2023-04-25T20:23:47.962Z,5.73
2023-04-25T20:26:15.972Z,11.50
2023-04-25T20:28:43.872Z,7.33
2023-04-25T20:31:12.559Z,8.40
2023-04-25T20:33:44.130Z,7.00
2023-04-25T20:36:12.294Z,6.80
2023-04-25T20:38:40.741Z,5.73
2023-04-25T20:41:09.520Z,11.13
2023-04-25T20:43:38.245Z,5.83
2023-04-25T20:46:06.468Z,4.80
2023-04-25T20:48:37.478Z,8.70
2023-04-25T20:51:07.288Z,8.33
2023-04-25T20:53:35.325Z,7.23
2023-04-25T20:56:04.706Z,6.50
2023-04-25T20:58:33.495Z,8.53
2023-04-25T21:01:03.463Z,7.00
2023-04-25T21:03:31.592Z,5.43
2023-04-25T21:06:00.153Z,8.07
2023-04-25T21:08:28.281Z,13.43
2023-04-25T21:10:56.175Z,7.50
2023-04-25T21:13:24.170Z,7.17
2023-04-25T21:15:52.097Z,12.73
2023-04-25T21:18:19.836Z,14.00
2023-04-25T21:20:48.486Z,5.23
2023-04-25T21:23:17.128Z,11.03
2023-04-25T21:25:45.025Z,4.97
2023-04-25T21:28:12.902Z,9.70
2023-04-25T21:30:42.592Z,6.10
2023-04-25T21:33:10.365Z,6.77
2023-04-25T21:35:38.409Z,10.23
2023-04-25T21:38:07.712Z,6.13
2023-04-25T21:40:36.066Z,6.80
2023-04-25T21:43:04.097Z,9.33
2023-04-25T21:45:31.956Z,8.80
2023-04-25T21:47:59.921Z,11.40
2023-04-25T21:50:28.180Z,10.20
2023-04-25T21:52:59.084Z,12.87
2023-04-25T21:55:27.787Z,11.20
2023-04-25T21:57:55.483Z,5.50
2023-04-25T22:00:27.851Z,10.17
2023-04-25T22:02:56.466Z,11.20
2023-04-25T22:05:26.721Z,8.80
2023-04-25T22:07:57.489Z,9.27
2023-04-25T22:10:26.242Z,7.50
2023-04-25T22:12:58.587Z,9.80
2023-04-25T22:15:27.198Z,9.07
2023-04-25T22:17:57.924Z,8.97
2023-04-25T22:20:28.265Z,8.43
2023-04-25T22:22:56.575Z,11.00
2023-04-25T22:25:25.465Z,15.87
2023-04-25T22:27:53.417Z,12.10
2023-04-25T22:30:22.290Z,15.03
2023-04-25T22:32:50.477Z,12.27
2023-04-25T22:35:19.369Z,13.60
2023-04-25T22:37:46.987Z,8.77
2023-04-25T22:40:15.719Z,11.53
2023-04-25T22:42:44.566Z,13.57
2023-04-25T22:45:14.212Z,8.50
2023-04-25T22:47:42.791Z,18.50
2023-04-25T22:50:16.974Z,8.73
2023-04-25T22:52:48.090Z,12.63
2023-04-25T22:55:16.009Z,7.00
2023-04-25T22:57:43.881Z,14.67
2023-04-25T23:00:16.761Z,8.27
2023-04-25T23:02:46.868Z,10.47
2023-04-25T23:05:16.107Z,8.27
2023-04-25T23:07:45.207Z,7.60
2023-04-25T23:10:14.513Z,10.30
2023-04-25T23:12:42.872Z,9.00
2023-04-25T23:15:13.297Z,12.93
2023-04-25T23:17:42.446Z,10.23
2023-04-25T23:20:12.097Z,13.30
2023-04-25T23:22:40.790Z,10.40
2023-04-25T23:25:10.418Z,10.00
2023-04-25T23:27:38.832Z,13.73
2023-04-25T23:30:08.767Z,12.30
2023-04-25T23:32:38.035Z,7.63
2023-04-25T23:35:07.254Z,9.60
2023-04-25T23:37:43.454Z,9.20
2023-04-25T23:40:12.944Z,8.63
2023-04-25T23:42:43.110Z,6.93
2023-04-25T23:45:11.774Z,8.30
2023-04-25T23:47:40.091Z,8.43
2023-04-25T23:50:09.857Z,7.43
2023-04-25T23:52:38.650Z,9.20
2023-04-25T23:55:07.753Z,9.33
2023-04-25T23:57:36.485Z,10.33
